Time;durP1;ratioP1;P1;durP2;ratioP2;P2;SDS_P1;SDS_P2;PMS_P1;PMS_P2;Temp;Humidity;BMP_temperature;BMP_pressure;BME280_temperature;BME280_humidity;BME280_pressure;Samples;Min_cycle;Max_cycle;Signal;HPM_P1;HPM_P2
2023/05/07 00:02:03;;;;;;;;;;;16.70;99.90;;;;;;7341162;19;109675;-60
2023/05/07 00:04:36;;;;;;;;;;;16.70;99.90;;;;;;7335765;19;110856;-60
2023/05/07 00:07:03;;;;;;;;;;;16.70;99.90;;;;;;7338395;19;109413;-60
2023/05/07 00:09:31;;;;;;;;;;;16.70;99.90;;;;;;7338550;19;110357;-61
2023/05/07 00:11:58;;;;;;;;;;;16.60;99.90;;;;;;7336476;19;110458;-60
2023/05/07 00:14:25;;;;;;;;;;;16.60;99.90;;;;;;7337674;19;109801;-60
2023/05/07 00:16:52;;;;;;;;;;;16.60;99.90;;;;;;7337105;19;110167;-60
2023/05/07 00:19:20;;;;;;;;;;;16.60;99.90;;;;;;7335904;19;110133;-60
2023/05/07 00:21:47;;;;;;;;;;;16.60;99.90;;;;;;7343171;19;110012;-60
2023/05/07 00:24:14;;;;;;;;;;;16.60;99.90;;;;;;7333149;19;111372;-61
2023/05/07 00:26:41;;;;;;;;;;;16.60;99.90;;;;;;7336579;19;110836;-60
2023/05/07 00:29:08;;;;;;;;;;;16.60;99.90;;;;;;7337267;19;109951;-60
2023/05/07 00:31:35;;;;;;;;;;;16.60;99.90;;;;;;7336831;19;109714;-60
2023/05/07 00:34:02;;;;;;;;;;;16.60;99.90;;;;;;7336523;19;109726;-60
2023/05/07 00:36:30;;;;;;;;;;;16.60;99.90;;;;;;7335895;19;111540;-60
2023/05/07 00:38:59;;;;;;;;;;;16.50;99.90;;;;;;7333789;19;110226;-60
2023/05/07 00:41:26;;;;;;;;;;;16.50;99.90;;;;;;7335038;19;110173;-60
2023/05/07 00:43:53;;;;;;;;;;;16.40;99.90;;;;;;7342237;19;109738;-60
2023/05/07 00:46:21;;;;;;;;;;;16.40;99.90;;;;;;7333065;19;111344;-60
2023/05/07 00:48:49;;;;;;;;;;;16.40;99.90;;;;;;7337759;19;109789;-61
2023/05/07 00:51:17;;;;;;;;;;;16.30;99.90;;;;;;7330076;19;110167;-60
2023/05/07 00:53:44;;;;;;;;;;;16.30;99.90;;;;;;7337391;19;109878;-60
2023/05/07 00:56:11;;;;;;;;;;;16.20;99.90;;;;;;7336320;19;109953;-60
2023/05/07 00:58:39;;;;;;;;;;;16.20;99.90;;;;;;7332764;19;111057;-60
2023/05/07 01:01:06;;;;;;;;;;;16.10;99.90;;;;;;7337266;19;109625;-60
2023/05/07 01:03:33;;;;;;;;;;;16.10;99.90;;;;;;7333893;19;109551;-60
2023/05/07 01:06:01;;;;;;;;;;;16.10;99.90;;;;;;7337299;19;111244;-60
2023/05/07 01:08:29;;;;;;;;;;;16.10;99.90;;;;;;7334136;19;112569;-60
2023/05/07 01:10:57;;;;;;;;;;;16.20;99.90;;;;;;7336511;19;110634;-61
2023/05/07 01:13:24;;;;;;;;;;;16.20;99.90;;;;;;7336453;19;110027;-60
2023/05/07 01:15:52;;;;;;;;;;;16.30;99.90;;;;;;7332965;19;110160;-60
2023/05/07 01:18:19;;;;;;;;;;;16.30;99.90;;;;;;7332697;19;109922;-60
2023/05/07 01:20:46;;;;;;;;;;;16.30;99.90;;;;;;7335667;19;115440;-60
2023/05/07 01:23:13;;;;;;;;;;;16.30;99.90;;;;;;7338070;19;110483;-60
2023/05/07 01:25:40;;;;;;;;;;;16.30;99.90;;;;;;7335332;19;110069;-60
2023/05/07 01:28:07;;;;;;;;;;;16.30;99.90;;;;;;7335269;19;110780;-60
2023/05/07 01:30:35;;;;;;;;;;;16.30;99.90;;;;;;7334892;19;110692;-60
2023/05/07 01:33:04;;;;;;;;;;;16.30;99.90;;;;;;7335648;19;110161;-60
2023/05/07 01:35:34;;;;;;;;;;;16.30;99.90;;;;;;7334686;19;110078;-61
2023/05/07 01:38:02;;;;;;;;;;;16.30;99.90;;;;;;7333815;19;111874;-60
2023/05/07 01:40:29;;;;;;;;;;;16.30;99.90;;;;;;7333906;19;109433;-60
2023/05/07 01:42:56;;;;;;;;;;;16.30;99.90;;;;;;7333107;19;114928;-60
2023/05/07 01:45:23;;;;;;;;;;;16.30;99.90;;;;;;7332409;19;110935;-60
2023/05/07 01:47:51;;;;;;;;;;;16.20;99.90;;;;;;7335572;19;110243;-60
2023/05/07 01:50:22;;;;;;;;;;;16.30;99.90;;;;;;7337579;19;119720;-60
2023/05/07 01:52:50;;;;;;;;;;;16.20;99.90;;;;;;7335300;19;110954;-60
2023/05/07 01:55:17;;;;;;;;;;;16.20;99.90;;;;;;7331943;19;110278;-61
2023/05/07 01:57:45;;;;;;;;;;;16.20;99.90;;;;;;7334091;19;110075;-60
2023/05/07 02:00:12;;;;;;;;;;;16.30;99.90;;;;;;7330980;19;111986;-60
2023/05/07 02:02:39;;;;;;;;;;;16.20;99.90;;;;;;7332420;19;111063;-60
2023/05/07 02:05:07;;;;;;;;;;;16.30;99.90;;;;;;7330982;19;110296;-61
2023/05/07 02:07:34;;;;;;;;;;;16.20;99.90;;;;;;7333944;19;109593;-60
2023/05/07 02:10:01;;;;;;;;;;;16.30;99.90;;;;;;7337622;19;110073;-60
2023/05/07 02:12:28;;;;;;;;;;;16.30;99.90;;;;;;7334495;19;111844;-60
2023/05/07 02:14:55;;;;;;;;;;;16.30;99.90;;;;;;7331298;19;113866;-60
2023/05/07 02:17:22;;;;;;;;;;;16.30;99.90;;;;;;7332666;19;110319;-60
2023/05/07 02:19:49;;;;;;;;;;;16.30;99.90;;;;;;7332279;19;112178;-60
2023/05/07 02:22:16;;;;;;;;;;;16.30;99.90;;;;;;7331398;19;110833;-60
2023/05/07 02:24:43;;;;;;;;;;;16.20;99.90;;;;;;7331365;19;110270;-60
2023/05/07 02:27:10;;;;;;;;;;;16.20;99.90;;;;;;7326827;19;110614;-61
2023/05/07 02:29:37;;;;;;;;;;;16.20;99.90;;;;;;7331512;19;111294;-60
2023/05/07 02:32:04;;;;;;;;;;;16.30;99.90;;;;;;7337036;19;110323;-60
2023/05/07 02:34:31;;;;;;;;;;;16.30;99.90;;;;;;7334340;19;109819;-60
2023/05/07 02:36:58;;;;;;;;;;;16.30;99.90;;;;;;7328632;19;111864;-60
2023/05/07 02:39:25;;;;;;;;;;;16.30;99.90;;;;;;7334383;19;110593;-61
2023/05/07 02:41:52;;;;;;;;;;;16.30;99.90;;;;;;7330882;19;110615;-60
2023/05/07 02:44:19;;;;;;;;;;;16.30;99.90;;;;;;7331562;19;110090;-60
2023/05/07 02:46:46;;;;;;;;;;;16.30;99.90;;;;;;7334092;19;110580;-60
2023/05/07 02:49:13;;;;;;;;;;;16.20;99.90;;;;;;7331768;19;109339;-60
2023/05/07 02:51:41;;;;;;;;;;;16.20;99.90;;;;;;7331105;19;110568;-60
2023/05/07 02:54:08;;;;;;;;;;;16.30;99.90;;;;;;7335701;19;109418;-60
2023/05/07 02:56:35;;;;;;;;;;;16.20;99.90;;;;;;7329367;19;111461;-60
2023/05/07 02:59:02;;;;;;;;;;;16.20;99.90;;;;;;7333133;19;109554;-60
2023/05/07 03:01:29;;;;;;;;;;;16.20;99.90;;;;;;7333481;19;109871;-61
2023/05/07 03:03:56;;;;;;;;;;;16.20;99.90;;;;;;7331176;19;110236;-61
2023/05/07 03:06:23;;;;;;;;;;;16.20;99.90;;;;;;7333160;19;109896;-60
2023/05/07 03:08:50;;;;;;;;;;;16.10;99.90;;;;;;7332832;19;110906;-60
2023/05/07 03:11:17;;;;;;;;;;;16.10;99.90;;;;;;7327622;19;111072;-60
2023/05/07 03:13:45;;;;;;;;;;;16.10;99.90;;;;;;7332394;19;109304;-60
2023/05/07 03:16:12;;;;;;;;;;;16.10;99.90;;;;;;7335405;19;110167;-61
2023/05/07 03:18:39;;;;;;;;;;;16.20;99.90;;;;;;7333219;19;109536;-60
2023/05/07 03:21:06;;;;;;;;;;;16.10;99.90;;;;;;7329560;19;113334;-61
2023/05/07 03:23:33;;;;;;;;;;;16.10;99.90;;;;;;7337665;19;110423;-60
2023/05/07 03:26:00;;;;;;;;;;;16.10;99.90;;;;;;7337503;19;109664;-60
2023/05/07 03:28:27;;;;;;;;;;;16.10;99.90;;;;;;7340056;19;110983;-60
2023/05/07 03:30:54;;;;;;;;;;;16.20;99.90;;;;;;7339280;19;111181;-60
2023/05/07 03:33:21;;;;;;;;;;;16.20;99.90;;;;;;7339363;19;109708;-60
2023/05/07 03:35:48;;;;;;;;;;;16.20;99.90;;;;;;7337514;19;110219;-60
2023/05/07 03:38:15;;;;;;;;;;;16.20;99.90;;;;;;7343896;19;110669;-60
2023/05/07 03:40:42;;;;;;;;;;;16.20;99.90;;;;;;7337128;19;109960;-60
2023/05/07 03:43:09;;;;;;;;;;;16.20;99.90;;;;;;7337112;19;110376;-61
2023/05/07 03:45:36;;;;;;;;;;;16.20;99.90;;;;;;7339393;19;110355;-60
2023/05/07 03:48:03;;;;;;;;;;;16.10;99.90;;;;;;7337592;19;109378;-60
2023/05/07 03:50:30;;;;;;;;;;;16.10;99.90;;;;;;7339160;19;110141;-60
2023/05/07 03:52:57;;;;;;;;;;;16.10;99.90;;;;;;7338575;19;109437;-61
2023/05/07 03:55:25;;;;;;;;;;;16.10;99.90;;;;;;7338274;19;110502;-60
2023/05/07 03:57:52;;;;;;;;;;;16.10;99.90;;;;;;7337409;19;110156;-62
2023/05/07 04:00:20;;;;;;;;;;;16.10;99.90;;;;;;7344067;19;110530;-60
2023/05/07 04:02:47;;;;;;;;;;;16.20;99.90;;;;;;7338085;19;111291;-61
2023/05/07 04:05:15;;;;;;;;;;;16.20;99.90;;;;;;7335372;19;110043;-61
2023/05/07 04:07:42;;;;;;;;;;;16.20;99.90;;;;;;7336010;19;109803;-60
2023/05/07 04:10:09;;;;;;;;;;;16.10;99.90;;;;;;7338243;19;110841;-60
2023/05/07 04:12:37;;;;;;;;;;;16.20;99.90;;;;;;7337602;19;109852;-60
2023/05/07 04:15:04;;;;;;;;;;;16.20;99.90;;;;;;7338666;19;109789;-60
2023/05/07 04:17:31;;;;;;;;;;;16.20;99.90;;;;;;7341394;19;111378;-60
2023/05/07 04:19:58;;;;;;;;;;;16.20;99.90;;;;;;7342107;19;109370;-61
2023/05/07 04:22:25;;;;;;;;;;;16.20;99.90;;;;;;7334259;19;110881;-61
2023/05/07 04:24:52;;;;;;;;;;;16.20;99.90;;;;;;7336706;19;109834;-60
2023/05/07 04:27:20;;;;;;;;;;;16.20;99.90;;;;;;7336820;19;109656;-60
2023/05/07 04:29:47;;;;;;;;;;;16.20;99.90;;;;;;7335428;19;110530;-60
2023/05/07 04:32:14;;;;;;;;;;;16.20;99.90;;;;;;7336872;19;109854;-60
2023/05/07 04:34:41;;;;;;;;;;;16.20;99.90;;;;;;7334326;19;111128;-60
2023/05/07 04:37:08;;;;;;;;;;;16.20;99.90;;;;;;7337213;19;110595;-60
2023/05/07 04:39:35;;;;;;;;;;;16.10;99.90;;;;;;7339086;19;109907;-61
2023/05/07 04:42:03;;;;;;;;;;;16.00;99.90;;;;;;7341822;19;110163;-61
2023/05/07 04:44:31;;;;;;;;;;;16.00;99.90;;;;;;7338873;19;109612;-61
2023/05/07 04:46:58;;;;;;;;;;;16.00;99.90;;;;;;7336607;19;110189;-60
2023/05/07 04:49:25;;;;;;;;;;;16.10;99.90;;;;;;7334609;19;110106;-60
2023/05/07 04:51:52;;;;;;;;;;;16.10;99.90;;;;;;7336338;19;109764;-60
2023/05/07 04:54:19;;;;;;;;;;;16.10;99.90;;;;;;7335790;19;111519;-61
2023/05/07 04:56:46;;;;;;;;;;;16.10;99.90;;;;;;7335264;19;110816;-60
2023/05/07 04:59:13;;;;;;;;;;;16.20;99.90;;;;;;7334446;19;111269;-60
2023/05/07 05:01:40;;;;;;;;;;;16.20;99.90;;;;;;7336418;19;110171;-61
2023/05/07 05:04:07;;;;;;;;;;;16.20;99.90;;;;;;7340816;19;110617;-61
2023/05/07 05:06:34;;;;;;;;;;;16.30;99.90;;;;;;7337792;19;111141;-60
2023/05/07 05:09:01;;;;;;;;;;;16.30;99.90;;;;;;7335669;19;111034;-60
2023/05/07 05:11:29;;;;;;;;;;;16.30;99.90;;;;;;7333759;19;110194;-61
2023/05/07 05:13:56;;;;;;;;;;;16.30;99.90;;;;;;7334131;19;111886;-60
2023/05/07 05:16:23;;;;;;;;;;;16.30;99.90;;;;;;7336314;19;110705;-60
2023/05/07 05:18:51;;;;;;;;;;;16.30;99.90;;;;;;7333299;19;109553;-60
2023/05/07 05:21:18;;;;;;;;;;;16.30;99.90;;;;;;7335113;19;109638;-60
2023/05/07 05:23:46;;;;;;;;;;;16.40;99.90;;;;;;7336132;19;113292;-60
2023/05/07 05:26:15;;;;;;;;;;;16.40;99.90;;;;;;7337665;19;110519;-60
2023/05/07 05:28:42;;;;;;;;;;;16.40;99.90;;;;;;7331737;19;110538;-60
2023/05/07 05:31:10;;;;;;;;;;;16.40;99.90;;;;;;7333471;19;109618;-60
2023/05/07 05:33:37;;;;;;;;;;;16.40;99.90;;;;;;7336258;19;110205;-60
2023/05/07 05:36:04;;;;;;;;;;;16.40;99.90;;;;;;7334640;19;110165;-61
2023/05/07 05:38:31;;;;;;;;;;;16.50;99.90;;;;;;7334518;19;110013;-61
2023/05/07 05:40:58;;;;;;;;;;;16.50;99.90;;;;;;7332423;19;110882;-61
2023/05/07 05:43:25;;;;;;;;;;;16.50;99.90;;;;;;7330546;19;111198;-61
2023/05/07 05:45:52;;;;;;;;;;;16.50;99.90;;;;;;7334374;19;109312;-61
2023/05/07 05:48:19;;;;;;;;;;;16.50;99.90;;;;;;7339352;19;110760;-61
2023/05/07 05:50:46;;;;;;;;;;;16.50;99.90;;;;;;7336062;19;109823;-61
2023/05/07 05:53:13;;;;;;;;;;;16.50;99.90;;;;;;7334885;19;109736;-61
2023/05/07 05:55:41;;;;;;;;;;;16.60;99.90;;;;;;7332954;19;111199;-61
2023/05/07 05:58:08;;;;;;;;;;;16.60;99.90;;;;;;7334407;19;109580;-60
2023/05/07 06:00:35;;;;;;;;;;;16.60;99.90;;;;;;7336645;19;110350;-60
2023/05/07 06:03:02;;;;;;;;;;;16.70;99.90;;;;;;7333589;19;110039;-61
2023/05/07 06:05:29;;;;;;;;;;;16.70;99.90;;;;;;7335094;19;112064;-60
2023/05/07 06:07:57;;;;;;;;;;;16.80;99.90;;;;;;7334971;19;110285;-61
2023/05/07 06:10:24;;;;;;;;;;;16.80;99.90;;;;;;7340298;19;111874;-60
2023/05/07 06:12:51;;;;;;;;;;;16.80;99.90;;;;;;7334837;19;114938;-61
2023/05/07 06:15:18;;;;;;;;;;;16.90;99.90;;;;;;7332880;19;110733;-61
2023/05/07 06:17:45;;;;;;;;;;;16.90;99.90;;;;;;7334886;19;109715;-61
2023/05/07 06:20:12;;;;;;;;;;;17.00;99.90;;;;;;7337742;19;110378;-61
2023/05/07 06:22:39;;;;;;;;;;;17.10;99.90;;;;;;7334192;19;109869;-60
2023/05/07 06:25:07;;;;;;;;;;;17.10;99.90;;;;;;7335351;19;109730;-61
2023/05/07 06:27:34;;;;;;;;;;;17.10;99.90;;;;;;7332303;19;110928;-60
2023/05/07 06:30:01;;;;;;;;;;;17.10;99.90;;;;;;7339236;19;113239;-61
2023/05/07 06:32:28;;;;;;;;;;;17.20;99.90;;;;;;7333185;19;109740;-61
2023/05/07 06:34:55;;;;;;;;;;;17.20;99.90;;;;;;7335523;19;110706;-60
2023/05/07 06:37:22;;;;;;;;;;;17.30;99.90;;;;;;7335356;19;110070;-61
2023/05/07 06:39:49;;;;;;;;;;;17.30;99.90;;;;;;7334799;19;109670;-60
2023/05/07 06:42:16;;;;;;;;;;;17.30;99.90;;;;;;7331101;19;112181;-61
2023/05/07 06:44:43;;;;;;;;;;;17.30;99.90;;;;;;7334781;19;111803;-60
2023/05/07 06:47:10;;;;;;;;;;;17.40;99.90;;;;;;7330024;19;110110;-61
2023/05/07 06:49:41;;;;;;;;;;;17.40;99.90;;;;;;7333517;19;110556;-63
2023/05/07 06:52:08;;;;;;;;;;;17.40;99.90;;;;;;7337746;19;110613;-61
2023/05/07 06:54:35;;;;;;;;;;;17.40;99.90;;;;;;7331172;19;111366;-61
2023/05/07 06:57:02;;;;;;;;;;;17.50;99.90;;;;;;7335800;19;109805;-61
2023/05/07 06:59:29;;;;;;;;;;;17.50;99.90;;;;;;7341425;19;109644;-61
2023/05/07 07:01:56;;;;;;;;;;;17.50;99.90;;;;;;7340093;19;111509;-60
2023/05/07 07:04:24;;;;;;;;;;;17.50;99.90;;;;;;7337381;19;110683;-61
2023/05/07 07:06:54;;;;;;;;;;;17.50;99.90;;;;;;7339827;19;110709;-61
2023/05/07 07:09:21;;;;;;;;;;;17.60;99.90;;;;;;7338416;19;110999;-61
2023/05/07 07:11:49;;;;;;;;;;;17.60;99.90;;;;;;7332298;19;109438;-60
2023/05/07 07:14:16;;;;;;;;;;;17.60;99.90;;;;;;7341092;19;109775;-61
2023/05/07 07:16:43;;;;;;;;;;;17.60;99.90;;;;;;7336267;19;109663;-61
2023/05/07 07:19:10;;;;;;;;;;;17.70;99.90;;;;;;7332613;19;109885;-61
2023/05/07 07:21:37;;;;;;;;;;;17.70;99.90;;;;;;7336111;19;111839;-61
2023/05/07 07:24:04;;;;;;;;;;;17.70;99.90;;;;;;7339151;19;109355;-61
2023/05/07 07:26:31;;;;;;;;;;;17.70;99.90;;;;;;7336854;19;110606;-61
2023/05/07 07:28:58;;;;;;;;;;;17.70;99.90;;;;;;7338671;19;111091;-60
2023/05/07 07:31:25;;;;;;;;;;;17.80;99.90;;;;;;7334082;19;110029;-61
2023/05/07 07:33:53;;;;;;;;;;;17.80;99.90;;;;;;7338496;19;109978;-60
2023/05/07 07:36:20;;;;;;;;;;;17.90;99.90;;;;;;7345199;19;110876;-61
2023/05/07 07:38:49;;;;;;;;;;;17.90;99.90;;;;;;7336481;19;110920;-61
2023/05/07 07:41:16;;;;;;;;;;;17.90;99.90;;;;;;7339235;19;110569;-60
2023/05/07 07:43:43;;;;;;;;;;;17.90;99.90;;;;;;7337806;19;110025;-60
2023/05/07 07:46:10;;;;;;;;;;;18.10;99.90;;;;;;7339113;19;109491;-60
2023/05/07 07:48:38;;;;;;;;;;;18.10;99.90;;;;;;7338856;19;112192;-60
2023/05/07 07:51:05;;;;;;;;;;;18.10;99.90;;;;;;7336965;19;109939;-60
2023/05/07 07:53:32;;;;;;;;;;;18.20;99.90;;;;;;7340496;19;110059;-60
2023/05/07 07:55:59;;;;;;;;;;;18.20;99.90;;;;;;7336828;19;111273;-60
2023/05/07 07:58:28;;;;;;;;;;;18.20;99.90;;;;;;7342221;19;110394;-65
2023/05/07 08:00:55;;;;;;;;;;;18.30;99.90;;;;;;7337327;19;110216;-60
2023/05/07 08:03:22;;;;;;;;;;;18.30;99.90;;;;;;7336444;19;110496;-60
2023/05/07 08:05:51;;;;;;;;;;;18.40;99.90;;;;;;7338066;19;110333;-60
2023/05/07 08:08:18;;;;;;;;;;;18.40;99.90;;;;;;7335343;19;110570;-60
2023/05/07 08:10:45;;;;;;;;;;;18.50;99.90;;;;;;7337958;19;109950;-60
2023/05/07 08:13:12;;;;;;;;;;;18.60;99.90;;;;;;7333617;19;109729;-60
2023/05/07 08:15:39;;;;;;;;;;;18.70;99.90;;;;;;7336730;19;110850;-60
2023/05/07 08:18:06;;;;;;;;;;;18.80;99.90;;;;;;7334607;19;109661;-60
2023/05/07 08:20:36;;;;;;;;;;;18.80;99.90;;;;;;7341419;19;109801;-59
2023/05/07 08:23:03;;;;;;;;;;;18.90;99.90;;;;;;7338622;19;109760;-60
2023/05/07 08:25:32;;;;;;;;;;;18.90;99.90;;;;;;7339072;19;110918;-60
2023/05/07 08:27:59;;;;;;;;;;;19.00;99.90;;;;;;7337483;19;110256;-60
2023/05/07 08:30:26;;;;;;;;;;;19.10;99.90;;;;;;7336809;19;109882;-60
2023/05/07 08:32:53;;;;;;;;;;;19.10;99.90;;;;;;7336863;19;109169;-60
2023/05/07 08:35:21;;;;;;;;;;;19.20;99.90;;;;;;7336507;19;110083;-60
2023/05/07 08:37:48;;;;;;;;;;;19.20;99.90;;;;;;7338476;19;109938;-60
2023/05/07 08:40:14;;;;;;;;;;;19.20;99.90;;;;;;7341783;19;110699;-60
2023/05/07 08:42:43;;;;;;;;;;;19.30;99.90;;;;;;7337747;19;111070;-60
2023/05/07 08:45:11;;;;;;;;;;;19.30;99.90;;;;;;7335337;19;110532;-60
2023/05/07 08:47:46;;;;;;;;;;;19.30;99.90;;;;;;7337203;19;109365;-60
2023/05/07 08:50:13;;;;;;;;;;;19.30;99.90;;;;;;7335058;19;110846;-60
2023/05/07 08:52:43;;;;;;;;;;;19.40;99.90;;;;;;7337230;19;110701;-60
2023/05/07 08:55:10;;;;;;;;;;;19.30;99.90;;;;;;7334715;19;110708;-63
2023/05/07 08:57:37;;;;;;;;;;;19.30;99.90;;;;;;7333879;19;110105;-63
2023/05/07 09:00:07;;;;;;;;;;;19.30;99.90;;;;;;7336845;19;109321;-64
2023/05/07 09:02:37;;;;;;;;;;;19.30;99.90;;;;;;7339631;19;112049;-64
2023/05/07 09:05:04;;;;;;;;;;;19.30;99.90;;;;;;7337089;19;110265;-62
2023/05/07 09:07:38;;;;;;;;;;;19.30;99.90;;;;;;7333020;19;110270;-62
2023/05/07 09:10:05;;;;;;;;;;;19.30;99.90;;;;;;7332239;19;110398;-62
2023/05/07 09:12:34;;;;;;;;;;;19.30;99.90;;;;;;7335300;19;111086;-61
2023/05/07 09:15:02;;;;;;;;;;;19.30;99.90;;;;;;7333711;19;110205;-61
2023/05/07 09:17:29;;;;;;;;;;;19.30;99.90;;;;;;7330840;19;110411;-61
2023/05/07 09:20:01;;;;;;;;;;;19.30;99.90;;;;;;7327272;19;109811;-62
2023/05/07 09:22:31;;;;;;;;;;;19.30;99.90;;;;;;7334468;19;111014;-64
2023/05/07 09:24:58;;;;;;;;;;;19.30;99.90;;;;;;7334828;19;110769;-61
2023/05/07 09:27:25;;;;;;;;;;;19.20;99.90;;;;;;7333362;19;112964;-61
2023/05/07 09:29:53;;;;;;;;;;;19.20;99.90;;;;;;7330376;19;111224;-61
2023/05/07 09:32:20;;;;;;;;;;;19.20;99.90;;;;;;7328011;19;110499;-61
2023/05/07 09:34:47;;;;;;;;;;;19.20;99.90;;;;;;7333184;19;111077;-61
2023/05/07 09:37:15;;;;;;;;;;;19.20;99.90;;;;;;7331474;19;110846;-63
2023/05/07 09:39:44;;;;;;;;;;;19.10;99.90;;;;;;7333520;19;109772;-61
2023/05/07 09:42:11;;;;;;;;;;;19.20;99.90;;;;;;7332622;19;111086;-60
2023/05/07 09:44:38;;;;;;;;;;;19.10;99.90;;;;;;7334094;19;113044;-61
2023/05/07 09:47:06;;;;;;;;;;;19.10;99.90;;;;;;7337495;19;111618;-63
2023/05/07 09:49:35;;;;;;;;;;;19.10;99.90;;;;;;7334803;19;111583;-60
2023/05/07 09:52:05;;;;;;;;;;;19.00;99.90;;;;;;7332690;19;110954;-60
2023/05/07 09:54:33;;;;;;;;;;;19.00;99.90;;;;;;7329470;19;110196;-60
2023/05/07 09:57:03;;;;;;;;;;;19.00;99.90;;;;;;7330161;19;110836;-60
2023/05/07 09:59:34;;;;;;;;;;;19.00;99.90;;;;;;7332412;19;112067;-60
2023/05/07 10:02:02;;;;;;;;;;;19.00;99.90;;;;;;7331002;19;110422;-63
2023/05/07 10:04:31;;;;;;;;;;;19.00;99.90;;;;;;7330745;19;111227;-60
2023/05/07 10:06:58;;;;;;;;;;;19.00;99.90;;;;;;7331353;19;110306;-60
2023/05/07 10:09:26;;;;;;;;;;;19.00;99.90;;;;;;7332527;19;110549;-60
2023/05/07 10:11:53;;;;;;;;;;;19.00;99.90;;;;;;7333791;19;109617;-61
2023/05/07 10:14:21;;;;;;;;;;;18.90;99.90;;;;;;7329243;19;110307;-63
2023/05/07 10:16:48;;;;;;;;;;;18.90;99.90;;;;;;7334612;19;109885;-61
2023/05/07 10:19:16;;;;;;;;;;;18.90;99.90;;;;;;7319042;19;111374;-61
2023/05/07 10:21:51;;;;;;;;;;;18.90;99.90;;;;;;7330589;19;110741;-59
2023/05/07 10:24:31;;;;;;;;;;;19.00;99.90;;;;;;7328489;19;110267;-60
2023/05/07 10:26:58;;;;;;;;;;;18.90;99.90;;;;;;7328691;19;109809;-60
2023/05/07 10:29:25;;;;;;;;;;;18.90;99.90;;;;;;7328967;19;110388;-61
2023/05/07 10:31:57;;;;;;;;;;;19.00;99.90;;;;;;7332274;19;109990;-62
2023/05/07 10:34:27;;;;;;;;;;;18.90;99.90;;;;;;7325413;19;110805;-62
2023/05/07 10:36:55;;;;;;;;;;;19.00;99.90;;;;;;7332250;19;111094;-62
2023/05/07 10:39:22;;;;;;;;;;;18.90;99.90;;;;;;7331508;19;110067;-62
2023/05/07 10:41:49;;;;;;;;;;;19.00;99.90;;;;;;7330944;19;110242;-61
2023/05/07 10:44:27;;;;;;;;;;;19.00;99.90;;;;;;7332731;19;109995;-62
2023/05/07 10:47:09;;;;;;;;;;;19.00;99.90;;;;;;7330919;19;110130;-60
2023/05/07 10:49:36;;;;;;;;;;;19.00;99.90;;;;;;7330356;19;111523;-61
2023/05/07 10:52:17;;;;;;;;;;;19.10;99.90;;;;;;7336913;19;110978;-62
2023/05/07 10:54:44;;;;;;;;;;;19.00;99.90;;;;;;7327396;19;110575;-61
2023/05/07 10:57:30;;;;;;;;;;;19.10;99.90;;;;;;7327297;19;109531;-61
2023/05/07 10:59:57;;;;;;;;;;;19.10;99.90;;;;;;7330318;19;111172;-61
2023/05/07 11:02:44;;;;;;;;;;;19.10;99.90;;;;;;7331294;19;110555;-61
2023/05/07 11:05:21;;;;;;;;;;;19.10;99.90;;;;;;7331548;19;109782;-60
2023/05/07 11:07:55;;;;;;;;;;;19.10;99.90;;;;;;7331760;19;110025;-61
2023/05/07 11:10:23;;;;;;;;;;;19.10;99.90;;;;;;7331083;19;110388;-61
2023/05/07 11:12:50;;;;;;;;;;;19.10;99.90;;;;;;7334185;19;110180;-61
2023/05/07 11:15:34;;;;;;;;;;;19.10;99.90;;;;;;7337038;19;109537;-61
2023/05/07 11:18:01;;;;;;;;;;;19.10;99.90;;;;;;7329976;19;113297;-61
2023/05/07 11:21:06;;;;;;;;;;;19.10;99.90;;;;;;7329542;19;109998;-61
2023/05/07 11:23:35;;;;;;;;;;;19.10;99.90;;;;;;7324038;19;110124;-61
2023/05/07 11:26:03;;;;;;;;;;;19.10;99.90;;;;;;7326620;19;110902;-60
2023/05/07 11:28:30;;;;;;;;;;;19.10;99.90;;;;;;7330463;19;110023;-60
2023/05/07 11:30:58;;;;;;;;;;;19.10;99.90;;;;;;7325813;19;110223;-61
2023/05/07 11:33:25;;;;;;;;;;;19.10;99.90;;;;;;7327723;19;109753;-61
2023/05/07 11:35:55;;;;;;;;;;;19.10;99.90;;;;;;7322555;19;111355;-60
2023/05/07 11:38:22;;;;;;;;;;;19.10;99.90;;;;;;7332338;19;110642;-61
2023/05/07 11:40:50;;;;;;;;;;;19.10;99.90;;;;;;7327747;19;109815;-61
2023/05/07 11:43:17;;;;;;;;;;;19.10;99.90;;;;;;7327453;19;110836;-61
2023/05/07 11:45:46;;;;;;;;;;;19.20;99.90;;;;;;7332983;19;110420;-60
2023/05/07 11:48:13;;;;;;;;;;;19.20;99.90;;;;;;7331481;19;109839;-60
2023/05/07 11:51:12;;;;;;;;;;;19.20;99.90;;;;;;7329393;19;110925;-61
2023/05/07 11:53:40;;;;;;;;;;;19.20;99.90;;;;;;7328332;19;110036;-61
2023/05/07 11:56:07;;;;;;;;;;;19.20;99.90;;;;;;7338052;19;110626;-61
2023/05/07 11:58:34;;;;;;;;;;;19.20;99.90;;;;;;7337258;19;110982;-60
2023/05/07 12:01:01;;;;;;;;;;;19.20;99.90;;;;;;7342535;19;109759;-60
2023/05/07 12:03:28;;;;;;;;;;;19.20;99.90;;;;;;7336269;19;110286;-60
2023/05/07 12:06:01;;;;;;;;;;;19.20;99.90;;;;;;7338113;19;115483;-60
2023/05/07 12:08:28;;;;;;;;;;;19.30;99.90;;;;;;7339318;19;109523;-61
2023/05/07 12:10:55;;;;;;;;;;;19.30;99.90;;;;;;7336365;19;110778;-60
2023/05/07 12:13:24;;;;;;;;;;;19.30;99.90;;;;;;7333530;19;110097;-61
2023/05/07 12:15:55;;;;;;;;;;;19.30;99.90;;;;;;7336270;19;110685;-60
2023/05/07 12:18:23;;;;;;;;;;;19.30;99.90;;;;;;7335713;19;110638;-61
2023/05/07 12:20:50;;;;;;;;;;;19.40;99.90;;;;;;7333595;19;110850;-60
2023/05/07 12:23:18;;;;;;;;;;;19.40;99.90;;;;;;7340508;19;110240;-61
2023/05/07 12:25:49;;;;;;;;;;;19.40;99.90;;;;;;7339500;19;109805;-61
2023/05/07 12:28:18;;;;;;;;;;;19.40;99.90;;;;;;7335707;19;110469;-60
2023/05/07 12:30:47;;;;;;;;;;;19.50;99.90;;;;;;7332656;19;110800;-60
2023/05/07 12:33:17;;;;;;;;;;;19.50;99.90;;;;;;7337481;19;110288;-60
2023/05/07 12:35:44;;;;;;;;;;;19.50;99.90;;;;;;7338063;19;110039;-61
2023/05/07 12:38:12;;;;;;;;;;;19.60;99.90;;;;;;7334099;19;110081;-61
2023/05/07 12:40:41;;;;;;;;;;;19.60;99.90;;;;;;7334038;19;109693;-61
2023/05/07 12:43:15;;;;;;;;;;;19.60;99.90;;;;;;7339227;19;110054;-60
2023/05/07 12:45:42;;;;;;;;;;;19.60;99.90;;;;;;7336217;19;109736;-61
2023/05/07 12:48:10;;;;;;;;;;;19.60;99.90;;;;;;7335991;19;110021;-60
2023/05/07 12:50:37;;;;;;;;;;;19.70;99.90;;;;;;7335304;19;110538;-60
2023/05/07 12:53:05;;;;;;;;;;;19.70;99.90;;;;;;7333565;19;110328;-60
2023/05/07 12:55:40;;;;;;;;;;;19.70;99.90;;;;;;7335046;19;112329;-61
2023/05/07 12:58:08;;;;;;;;;;;19.80;99.90;;;;;;7332229;19;111247;-59
2023/05/07 13:00:38;;;;;;;;;;;19.80;99.90;;;;;;7336167;19;110861;-60
2023/05/07 13:03:05;;;;;;;;;;;19.90;99.90;;;;;;7336644;19;110197;-61
2023/05/07 13:05:32;;;;;;;;;;;19.90;99.90;;;;;;7341976;19;110118;-60
2023/05/07 13:07:59;;;;;;;;;;;19.90;99.90;;;;;;7337175;19;110469;-60
2023/05/07 13:10:27;;;;;;;;;;;20.00;99.90;;;;;;7334371;19;111159;-63
2023/05/07 13:12:54;;;;;;;;;;;20.00;99.90;;;;;;7330781;19;109967;-62
2023/05/07 13:15:21;;;;;;;;;;;20.00;99.90;;;;;;7336286;19;109755;-60
2023/05/07 13:17:48;;;;;;;;;;;20.00;99.90;;;;;;7335207;19;110518;-64
2023/05/07 13:20:16;;;;;;;;;;;20.00;99.90;;;;;;7331721;19;110648;-63
2023/05/07 13:22:42;;;;;;;;;;;20.00;99.90;;;;;;7334949;19;110116;-63
2023/05/07 13:25:10;;;;;;;;;;;20.10;99.90;;;;;;7333608;19;110538;-64
2023/05/07 13:27:37;;;;;;;;;;;20.10;99.90;;;;;;7342344;19;110177;-62
2023/05/07 13:30:05;;;;;;;;;;;20.10;99.90;;;;;;7333937;19;113623;-63
2023/05/07 13:32:32;;;;;;;;;;;20.20;99.90;;;;;;7334632;19;109500;-61
2023/05/07 13:35:00;;;;;;;;;;;20.20;99.90;;;;;;7331977;19;109717;-61
2023/05/07 13:37:27;;;;;;;;;;;20.20;99.90;;;;;;7333686;19;110360;-61
2023/05/07 13:39:54;;;;;;;;;;;20.30;99.90;;;;;;7335872;19;109361;-61
2023/05/07 13:42:21;;;;;;;;;;;20.30;99.90;;;;;;7332782;19;114588;-65
2023/05/07 13:44:48;;;;;;;;;;;20.40;99.90;;;;;;7333750;19;110098;-61
2023/05/07 13:47:16;;;;;;;;;;;20.40;99.90;;;;;;7333483;19;110512;-61
2023/05/07 13:49:43;;;;;;;;;;;20.40;99.90;;;;;;7339297;19;110739;-61
2023/05/07 13:52:10;;;;;;;;;;;20.40;99.90;;;;;;7333274;19;112552;-62
2023/05/07 13:54:38;;;;;;;;;;;20.40;99.90;;;;;;7335327;19;109495;-61
2023/05/07 13:57:05;;;;;;;;;;;20.40;99.90;;;;;;7333917;19;110110;-61
2023/05/07 13:59:32;;;;;;;;;;;20.50;99.90;;;;;;7335106;19;110469;-61
2023/05/07 14:01:59;;;;;;;;;;;20.50;99.90;;;;;;7332925;19;110227;-61
2023/05/07 14:04:26;;;;;;;;;;;20.50;99.90;;;;;;7332413;19;110259;-61
2023/05/07 14:06:54;;;;;;;;;;;20.50;99.90;;;;;;7333486;19;110724;-61
2023/05/07 14:09:21;;;;;;;;;;;20.60;99.90;;;;;;7332340;19;110072;-62